createdAt,value
2018-06-25T01:52:56.374Z,13
2018-06-25T02:48:16.211Z,13.1
2018-06-25T03:45:16.892Z,13.2
2018-06-25T04:43:58.124Z,13.3
2018-06-25T04:53:01.853Z,13.4
2018-06-25T05:37:47.146Z,13.8
2018-06-25T05:47:31.075Z,13.9
2018-06-25T06:14:00.182Z,14.4
2018-06-25T06:30:55.878Z,14.6
2018-06-25T06:42:10.339Z,14.9
2018-06-25T07:09:59.543Z,15.5
2018-06-25T07:29:56.024Z,15.4
2018-06-25T07:43:51.048Z,16
2018-06-25T08:18:01.820Z,16.5
2018-06-25T08:22:33.513Z,16.6
2018-06-25T08:37:48.776Z,17
2018-06-25T08:56:14.464Z,17.5
2018-06-25T09:19:41.710Z,17.9
2018-06-25T09:38:57.796Z,18
2018-06-25T10:16:28.737Z,17.8
2018-06-25T10:41:56.781Z,18.5
2018-06-25T11:13:05.919Z,18.6
2018-06-25T12:04:21.013Z,18.4
2018-06-25T12:25:17.527Z,18.9
2018-06-25T12:44:33.192Z,18.4
2018-06-25T12:57:47.100Z,18.6
2018-06-25T13:11:31.636Z,18.7
2018-06-25T13:33:38.034Z,19.3
2018-06-25T13:57:44.988Z,18.8
2018-06-25T14:26:03.804Z,19.3
2018-06-25T14:58:02.937Z,19.1
2018-06-25T15:50:58.202Z,19.4
2018-06-25T16:19:26.598Z,19.1
2018-06-25T17:44:31.369Z,19.3
2018-06-25T18:12:59.793Z,18.9
2018-06-25T19:07:20.713Z,18.9
2018-06-25T19:22:30.195Z,18.4
2018-06-25T19:33:53.736Z,18.2
2018-06-25T19:51:29.381Z,18.1
2018-06-25T20:24:29.137Z,17.6
2018-06-25T20:40:24.783Z,17.1
2018-06-25T20:58:00.261Z,16.7
2018-06-25T21:16:16.065Z,16.2
2018-06-25T22:00:02.859Z,15.7
2018-06-25T22:22:07.752Z,15.5
2018-06-25T22:41:44.557Z,15.2
2018-06-25T23:12:54.959Z,14.9
2018-06-25T23:34:12.545Z,14.7
